Time;durP1;ratioP1;P1;durP2;ratioP2;P2;SDS_P1;SDS_P2;PMS_P1;PMS_P2;Temp;Humidity;BMP_temperature;BMP_pressure;BME280_temperature;BME280_humidity;BME280_pressure;Samples;Min_cycle;Max_cycle;Signal;HPM_P1;HPM_P2
2022/02/24 00:00:33;;;;;;;27.10;11.75;;;;;;;2.57;95.80;101244.03;5117169;28;20032;-71
2022/02/24 00:03:03;;;;;;;34.60;11.60;;;;;;;2.56;92.59;101242.28;5117230;28;20066;-71
2022/02/24 00:05:31;;;;;;;25.85;11.80;;;;;;;2.57;90.27;101249.28;5116944;28;20050;-71
2022/02/24 00:08:00;;;;;;;31.77;13.05;;;;;;;2.29;90.33;101252.22;5117100;28;20107;-71
2022/02/24 00:10:29;;;;;;;22.10;10.15;;;;;;;2.05;91.69;101244.59;5116938;28;20487;-80
2022/02/24 00:12:58;;;;;;;24.55;10.70;;;;;;;2.06;92.21;101246.34;5116512;28;20547;-72
2022/02/24 00:15:26;;;;;;;24.35;10.50;;;;;;;2.15;91.33;101242.75;5116648;28;20461;-72
2022/02/24 00:17:54;;;;;;;24.23;10.40;;;;;;;2.15;91.25;101240.97;5116845;28;20481;-72
2022/02/24 00:20:22;;;;;;;20.98;9.18;;;;;;;2.13;91.13;101236.63;5116737;28;20054;-72
2022/02/24 00:22:51;;;;;;;23.10;9.63;;;;;;;2.22;90.60;101236.50;5116348;28;20054;-72
2022/02/24 00:25:19;;;;;;;24.52;9.75;;;;;;;2.19;90.62;101233.91;5098241;28;20048;-72
2022/02/24 00:27:49;;;;;;;21.70;9.35;;;;;;;2.16;90.93;101231.31;5116334;28;20048;-73
2022/02/24 00:30:17;;;;;;;21.40;9.13;;;;;;;2.03;92.12;101235.84;5116051;28;20043;-72
2022/02/24 00:32:45;;;;;;;19.23;9.50;;;;;;;1.89;95.12;101242.97;5116153;28;20040;-72
2022/02/24 00:35:13;;;;;;;17.55;8.60;;;;;;;1.80;95.88;101245.69;5116510;28;20078;-73
2022/02/24 00:37:42;;;;;;;21.83;10.02;;;;;;;1.67;97.89;101240.53;5115517;28;20043;-73
2022/02/24 00:40:13;;;;;;;24.20;9.75;;;;;;;1.61;99.57;101243.19;5116567;28;20131;-73
2022/02/24 00:42:41;;;;;;;21.08;9.43;;;;;;;1.53;99.56;101246.75;5115888;28;20097;-74
2022/02/24 00:45:10;;;;;;;22.52;10.50;;;;;;;1.40;100.00;101244.22;5116177;28;20050;-73
2022/02/24 00:47:39;;;;;;;25.80;11.13;;;;;;;1.32;100.00;101237.28;5115874;28;20089;-73
2022/02/24 00:50:07;;;;;;;30.67;12.57;;;;;;;1.29;100.00;101240.81;5116019;28;20092;-72
2022/02/24 00:52:36;;;;;;;29.15;12.48;;;;;;;1.26;100.00;101232.09;5115803;28;20074;-72
2022/02/24 00:55:05;;;;;;;28.23;13.25;;;;;;;1.38;100.00;101239.88;5115857;28;20469;-71
2022/02/24 00:57:33;;;;;;;30.77;14.60;;;;;;;1.69;98.50;101244.03;5115376;28;20045;-72
2022/02/24 01:00:02;;;;;;;28.50;14.98;;;;;;;1.70;97.08;101256.28;5116025;28;20131;-70
2022/02/24 01:02:34;;;;;;;31.52;14.32;;;;;;;1.51;99.06;101251.16;5115828;28;20047;-77
2022/02/24 01:05:03;;;;;;;28.50;14.55;;;;;;;1.28;100.00;101253.97;5116154;28;20445;-70
2022/02/24 01:07:32;;;;;;;28.40;14.52;;;;;;;1.18;100.00;101252.28;5115813;28;20044;-70
2022/02/24 01:10:00;;;;;;;31.23;14.10;;;;;;;1.13;100.00;101258.41;5115703;28;20039;-70
2022/02/24 01:12:31;;;;;;;29.50;14.95;;;;;;;1.10;100.00;101254.94;5115277;28;20044;-71
2022/02/24 01:15:06;;;;;;;36.30;15.13;;;;;;;1.01;100.00;101239.22;5116012;28;20119;-71
2022/02/24 01:17:37;;;;;;;30.38;14.07;;;;;;;1.23;100.00;101245.22;5115461;28;20052;-72
2022/02/24 01:20:07;;;;;;;32.33;14.52;;;;;;;1.14;100.00;101252.28;5115614;28;20554;-71
2022/02/24 01:22:38;;;;;;;33.50;14.38;;;;;;;0.98;100.00;101245.38;5115438;28;20083;-72
2022/02/24 01:25:08;;;;;;;31.23;14.23;;;;;;;0.98;100.00;101250.63;5097088;28;20056;-71
2022/02/24 01:27:37;;;;;;;26.77;12.50;;;;;;;1.09;100.00;101256.69;5115209;28;20085;-72
2022/02/24 01:30:06;;;;;;;29.02;13.25;;;;;;;0.94;100.00;101259.38;5115370;28;20389;-71
2022/02/24 01:32:37;;;;;;;28.30;14.38;;;;;;;0.99;100.00;101251.50;5115123;28;20043;-73
2022/02/24 01:35:07;;;;;;;32.80;14.90;;;;;;;1.25;100.00;101256.59;5115008;28;20063;-73
2022/02/24 01:37:35;;;;;;;34.63;16.23;;;;;;;1.35;100.00;101256.56;5114873;28;20047;-74
2022/02/24 01:40:05;;;;;;;30.98;15.30;;;;;;;1.06;100.00;101243.59;5115090;28;20047;-73
2022/02/24 01:42:33;;;;;;;33.08;16.02;;;;;;;1.00;100.00;101259.38;5115094;28;20527;-72
2022/02/24 01:45:02;;;;;;;34.35;15.95;;;;;;;0.88;100.00;101263.81;5114845;28;20061;-73
2022/02/24 01:47:31;;;;;;;34.33;15.50;;;;;;;0.80;100.00;101262.09;5115052;28;20043;-73
2022/02/24 01:50:01;;;;;;;35.85;15.52;;;;;;;0.71;100.00;101258.63;5113611;28;20039;-73
2022/02/24 01:52:29;;;;;;;31.05;15.13;;;;;;;0.63;100.00;101257.78;5114842;28;20130;-72
2022/02/24 01:54:57;;;;;;;33.78;15.88;;;;;;;0.52;100.00;101245.56;5114251;28;20067;-73
2022/02/24 01:57:26;;;;;;;31.38;14.93;;;;;;;0.46;100.00;101252.56;5114820;28;20392;-73
2022/02/24 01:59:54;;;;;;;30.63;15.32;;;;;;;0.43;100.00;101253.47;5095840;28;20500;-73
2022/02/24 02:02:22;;;;;;;29.58;15.20;;;;;;;0.44;100.00;101252.59;5114754;28;20093;-73
2022/02/24 02:04:51;;;;;;;30.58;14.93;;;;;;;0.35;100.00;101247.34;5114350;28;20386;-71
2022/02/24 02:07:22;;;;;;;35.55;15.10;;;;;;;0.32;100.00;101246.50;5114301;28;20043;-72
2022/02/24 02:09:50;;;;;;;29.88;14.55;;;;;;;0.29;100.00;101257.88;5113940;28;20480;-72
2022/02/24 02:12:21;;;;;;;32.53;14.80;;;;;;;0.26;100.00;101257.88;5114551;28;20048;-71
2022/02/24 02:14:49;;;;;;;30.08;14.85;;;;;;;0.30;100.00;101258.75;5114440;28;20097;-72
2022/02/24 02:17:18;;;;;;;34.67;14.90;;;;;;;0.28;100.00;101250.88;5114403;28;20071;-71
2022/02/24 02:19:46;;;;;;;34.65;16.35;;;;;;;0.39;100.00;101256.13;5114214;28;20122;-73
2022/02/24 02:22:16;;;;;;;36.90;16.80;;;;;;;0.38;100.00;101252.59;5114877;28;20046;-73
2022/02/24 02:24:58;;;;;;;38.45;17.60;;;;;;;0.33;100.00;101245.63;5114319;28;20406;-72
2022/02/24 02:27:27;;;;;;;34.67;17.08;;;;;;;0.28;100.00;101253.50;5114310;28;20092;-72
2022/02/24 02:29:55;;;;;;;35.88;16.70;;;;;;;0.15;100.00;101250.03;5113545;28;20480;-72
2022/02/24 02:32:24;;;;;;;32.08;16.15;;;;;;;0.17;100.00;101247.41;5114203;28;20449;-72
2022/02/24 02:34:52;;;;;;;36.08;16.45;;;;;;;0.11;100.00;101252.66;5113863;28;20046;-73
2022/02/24 02:37:22;;;;;;;33.60;16.63;;;;;;;0.03;100.00;101255.31;5113892;28;20039;-72
2022/02/24 02:39:50;;;;;;;33.38;15.77;;;;;;;-0.01;100.00;101253.53;5113671;28;20044;-72
2022/02/24 02:42:18;;;;;;;32.38;14.75;;;;;;;0.01;100.00;101245.69;5113968;28;20051;-72
2022/02/24 02:44:46;;;;;;;30.73;14.25;;;;;;;0.31;100.00;101250.88;5113300;28;20039;-72
2022/02/24 02:47:16;;;;;;;28.65;14.95;;;;;;;0.49;100.00;101248.22;5113911;28;20039;-72
2022/02/24 02:49:44;;;;;;;27.00;15.23;;;;;;;0.33;100.00;101243.88;5095189;28;20480;-72
2022/02/24 02:52:12;;;;;;;30.50;14.63;;;;;;;0.49;100.00;101245.59;5114010;28;20074;-72
2022/02/24 02:54:42;;;;;;;29.58;15.07;;;;;;;0.50;100.00;101241.19;5095479;28;20071;-73
2022/02/24 02:57:11;;;;;;;31.92;15.25;;;;;;;0.46;100.00;101234.19;5113729;28;20064;-71
2022/02/24 02:59:39;;;;;;;31.80;15.70;;;;;;;0.34;100.00;101236.88;5113275;28;20048;-76
2022/02/24 03:02:08;;;;;;;37.20;17.08;;;;;;;0.34;100.00;101235.13;5113544;28;20039;-72
2022/02/24 03:04:36;;;;;;;35.35;16.20;;;;;;;0.19;100.00;101235.13;5113730;28;20046;-71
2022/02/24 03:07:04;;;;;;;32.78;16.83;;;;;;;0.02;100.00;101239.56;5113356;28;20046;-71
2022/02/24 03:09:36;;;;;;;34.33;17.02;;;;;;;-0.09;100.00;101245.69;5113335;28;20036;-71
2022/02/24 03:12:06;;;;;;;39.10;17.55;;;;;;;-0.09;100.00;101250.06;5113232;28;20043;-71
2022/02/24 03:14:35;;;;;;;34.70;15.00;;;;;;;-0.14;100.00;101255.31;5113251;28;20491;-71
2022/02/24 03:17:04;;;;;;;33.58;16.05;;;;;;;-0.23;100.00;101254.44;5112816;28;20048;-72
2022/02/24 03:19:32;;;;;;;33.47;15.70;;;;;;;-0.24;100.00;101256.19;5113568;28;20046;-71
2022/02/24 03:22:01;;;;;;;34.58;16.63;;;;;;;-0.30;100.00;101256.16;5113166;28;20047;-72
2022/02/24 03:24:29;;;;;;;36.85;15.93;;;;;;;-0.34;100.00;101259.69;5113559;28;20409;-71
2022/02/24 03:26:57;;;;;;;32.10;15.77;;;;;;;-0.39;100.00;101256.16;5113088;28;20044;-71
2022/02/24 03:29:26;;;;;;;30.48;15.60;;;;;;;-0.40;100.00;101257.91;5113436;28;20044;-71
2022/02/24 03:31:55;;;;;;;32.47;14.85;;;;;;;-0.35;100.00;101258.81;5112741;28;20112;-72
2022/02/24 03:34:23;;;;;;;29.38;14.70;;;;;;;-0.39;100.00;101262.28;5113105;28;20048;-73
2022/02/24 03:36:52;;;;;;;26.88;15.55;;;;;;;-0.50;100.00;101263.16;5113023;28;20055;-73
2022/02/24 03:39:20;;;;;;;31.80;15.48;;;;;;;-0.54;100.00;101275.38;5113369;28;20043;-71
2022/02/24 03:41:48;;;;;;;33.53;16.30;;;;;;;-0.63;100.00;101260.53;5112712;28;20050;-71
2022/02/24 03:44:17;;;;;;;34.53;15.90;;;;;;;-0.62;100.00;101267.50;5112920;28;20435;-70
2022/02/24 03:46:46;;;;;;;32.17;15.52;;;;;;;-0.48;100.00;101257.06;5112853;28;20043;-71
2022/02/24 03:49:15;;;;;;;31.92;16.02;;;;;;;-0.30;100.00;101256.16;5094616;28;20116;-70
2022/02/24 03:51:43;;;;;;;27.42;13.88;;;;;;;-0.07;100.00;101254.44;5112978;28;20122;-78
2022/02/24 03:54:11;;;;;;;35.75;14.60;;;;;;;0.09;100.00;101254.41;5113191;28;20040;-70
2022/02/24 03:56:40;;;;;;;32.22;13.82;;;;;;;0.01;100.00;101258.81;5113168;28;20071;-70
2022/02/24 03:59:08;;;;;;;25.58;13.27;;;;;;;-0.08;100.00;101255.31;5112978;28;20032;-71
2022/02/24 04:01:37;;;;;;;31.50;13.88;;;;;;;-0.04;100.00;101251.78;5113168;28;20044;-71
2022/02/24 04:04:07;;;;;;;28.00;14.23;;;;;;;-0.31;100.00;101254.44;5112808;28;20043;-72
2022/02/24 04:06:35;;;;;;;32.17;16.13;;;;;;;-0.45;100.00;101250.94;5112817;28;20481;-72
2022/02/24 04:09:05;;;;;;;34.80;15.80;;;;;;;-0.50;100.00;101247.44;5112406;28;20083;-72
2022/02/24 04:11:33;;;;;;;32.53;15.63;;;;;;;-0.60;100.00;101242.19;5112941;28;20508;-73
2022/02/24 04:14:02;;;;;;;31.20;16.35;;;;;;;-0.56;100.00;101240.44;5116387;28;20090;-72
2022/02/24 04:16:33;;;;;;;31.73;16.13;;;;;;;-0.62;100.00;101243.06;5116829;28;20055;-71
2022/02/24 04:19:01;;;;;;;36.28;16.42;;;;;;;-0.64;100.00;101250.03;5116229;28;20043;-72
2022/02/24 04:21:31;;;;;;;26.83;15.10;;;;;;;-0.34;100.00;101243.94;5116406;28;20123;-71
2022/02/24 04:24:00;;;;;;;32.55;15.57;;;;;;;-0.52;100.00;101239.56;5116374;28;20047;-72
2022/02/24 04:26:28;;;;;;;31.30;15.77;;;;;;;-0.66;100.00;101231.72;5116671;28;20043;-72
2022/02/24 04:28:57;;;;;;;33.95;15.90;;;;;;;-0.73;100.00;101232.56;5116247;28;20044;-72
2022/02/24 04:31:25;;;;;;;33.67;15.38;;;;;;;-0.78;100.00;101236.91;5116537;28;20088;-72
2022/02/24 04:33:54;;;;;;;31.50;14.90;;;;;;;-0.70;100.00;101239.53;5116172;28;20043;-71
2022/02/24 04:36:23;;;;;;;31.42;14.68;;;;;;;-0.79;100.00;101245.63;5116064;28;20520;-71
2022/02/24 04:38:53;;;;;;;32.30;14.25;;;;;;;-0.88;100.00;101243.00;5116094;28;20074;-71
2022/02/24 04:41:21;;;;;;;27.80;13.77;;;;;;;-0.91;100.00;101238.63;5116707;28;20043;-71
2022/02/24 04:43:50;;;;;;;27.08;12.20;;;;;;;-0.90;100.00;101237.75;5116034;28;20123;-72
2022/02/24 04:46:18;;;;;;;30.52;13.93;;;;;;;-0.94;100.00;101236.03;5116004;28;20071;-71
2022/02/24 04:48:46;;;;;;;35.85;14.70;;;;;;;-0.97;100.00;101236.00;5116199;28;20044;-71
2022/02/24 04:51:16;;;;;;;35.72;15.50;;;;;;;-1.02;100.00;101239.47;5115637;28;20517;-71
2022/02/24 04:53:44;;;;;;;28.05;14.00;;;;;;;-1.05;100.00;101232.50;5116061;28;20122;-71
2022/02/24 04:56:14;;;;;;;27.55;13.35;;;;;;;-1.03;100.00;101241.22;5115477;28;20063;-71
2022/02/24 04:58:42;;;;;;;30.63;13.80;;;;;;;-0.94;100.00;101248.25;5115963;28;20492;-71
2022/02/24 05:01:10;;;;;;;33.40;15.20;;;;;;;-0.89;100.00;101249.09;5115260;28;20542;-71
2022/02/24 05:03:38;;;;;;;31.45;14.07;;;;;;;-0.90;100.00;101243.00;5115873;28;20040;-71
2022/02/24 05:06:07;;;;;;;30.13;14.95;;;;;;;-0.96;100.00;101245.63;5115476;28;20047;-71
2022/02/24 05:08:35;;;;;;;35.08;15.57;;;;;;;-0.91;100.00;101256.09;5115495;28;20122;-73
2022/02/24 05:11:03;;;;;;;32.17;15.13;;;;;;;-0.90;100.00;101263.09;5115327;28;20134;-73
2022/02/24 05:13:33;;;;;;;35.90;16.77;;;;;;;-0.91;100.00;101259.59;5115648;28;20048;-73
2022/02/24 05:16:01;;;;;;;35.42;16.38;;;;;;;-1.02;100.00;101252.59;5115250;28;20082;-72
2022/02/24 05:18:31;;;;;;;30.95;16.95;;;;;;;-0.97;100.00;101253.44;5115744;28;20386;-72
2022/02/24 05:20:59;;;;;;;35.15;16.42;;;;;;;-0.89;100.00;101247.38;5115082;28;20044;-73
2022/02/24 05:23:27;;;;;;;29.02;14.75;;;;;;;-0.93;100.00;101252.59;5115434;28;20503;-73
2022/02/24 05:25:56;;;;;;;32.63;14.93;;;;;;;-1.00;100.00;101261.31;5114809;28;20040;-72
2022/02/24 05:28:26;;;;;;;32.53;16.05;;;;;;;-1.03;100.00;101256.94;5115233;28;20069;-72
2022/02/24 05:30:59;;;;;;;30.23;15.35;;;;;;;-0.86;100.00;101270.09;5115042;28;20047;-74
2022/02/24 05:33:31;;;;;;;30.05;13.82;;;;;;;-0.66;100.00;101271.00;5115021;28;20127;-72
2022/02/24 05:36:01;;;;;;;34.38;14.50;;;;;;;-0.54;100.00;101272.78;5114496;28;20576;-72
2022/02/24 05:38:30;;;;;;;31.15;14.35;;;;;;;-0.62;100.00;101280.63;5115295;28;20096;-72
2022/02/24 05:40:59;;;;;;;33.22;14.25;;;;;;;-0.65;100.00;101283.25;5114777;28;20396;-73
2022/02/24 05:43:27;;;;;;;32.50;14.63;;;;;;;-0.69;100.00;101291.94;5114864;28;20050;-72
2022/02/24 05:45:57;;;;;;;31.15;13.95;;;;;;;-0.54;100.00;101282.38;5114664;28;20040;-73
2022/02/24 05:48:26;;;;;;;29.98;14.18;;;;;;;-0.52;100.00;101285.88;5096587;28;20047;-72
2022/02/24 05:50:54;;;;;;;31.48;15.18;;;;;;;-0.41;100.00;101284.13;5114681;28;20126;-73
2022/02/24 05:53:22;;;;;;;34.45;14.40;;;;;;;-0.40;100.00;101286.75;5114732;28;20050;-73
2022/02/24 05:55:50;;;;;;;36.35;14.40;;;;;;;-0.49;100.00;101288.50;5096935;28;20055;-72
2022/02/24 05:58:19;;;;;;;34.42;15.48;;;;;;;-0.61;100.00;101281.50;5114578;28;20126;-72
2022/02/24 06:00:48;;;;;;;31.90;15.60;;;;;;;-0.70;100.00;101282.34;5114405;28;20484;-72
2022/02/24 06:03:18;;;;;;;32.97;15.82;;;;;;;-0.68;100.00;101285.81;5114447;28;20044;-72
2022/02/24 06:05:47;;;;;;;32.50;15.43;;;;;;;-0.50;100.00;101284.13;5114629;28;20113;-74
2022/02/24 06:08:15;;;;;;;31.08;15.02;;;;;;;-0.44;100.00;101276.28;5114326;28;20065;-73
2022/02/24 06:10:43;;;;;;;28.08;14.20;;;;;;;-0.38;100.00;101281.53;5114334;28;20039;-72
2022/02/24 06:13:12;;;;;;;33.42;14.98;;;;;;;-0.42;100.00;101279.78;5114036;28;20126;-72
2022/02/24 06:15:40;;;;;;;35.80;16.88;;;;;;;-0.41;100.00;101273.66;5114266;28;20044;-72
2022/02/24 06:18:10;;;;;;;29.65;14.70;;;;;;;-0.39;100.00;101277.13;5113954;28;20039;-73
2022/02/24 06:20:40;;;;;;;38.63;16.92;;;;;;;-0.25;100.00;101272.78;5114341;28;20044;-73
2022/02/24 06:23:09;;;;;;;33.10;15.90;;;;;;;-0.18;100.00;101274.56;5113925;28;20052;-72
2022/02/24 06:25:37;;;;;;;35.65;16.85;;;;;;;0.10;100.00;101266.66;5114128;28;20063;-73
2022/02/24 06:28:06;;;;;;;38.58;17.27;;;;;;;0.07;100.00;101249.16;5113643;28;20051;-72
2022/02/24 06:30:34;;;;;;;41.92;16.95;;;;;;;0.45;100.00;101259.56;5113669;28;20067;-72
2022/02/24 06:33:03;;;;;;;32.08;16.73;;;;;;;0.35;100.00;101257.84;5113349;28;20139;-71
2022/02/24 06:35:32;;;;;;;28.80;14.90;;;;;;;0.33;100.00;101257.00;5117161;28;20113;-68
2022/02/24 06:38:02;;;;;;;29.77;15.13;;;;;;;0.35;100.00;101257.84;5113048;28;20175;-70
2022/02/24 06:40:31;;;;;;;34.88;16.45;;;;;;;0.33;100.00;101253.50;5114004;28;20039;-69
2022/02/24 06:43:02;;;;;;;35.13;16.48;;;;;;;0.23;100.00;101264.00;5113389;28;20043;-70
2022/02/24 06:45:30;;;;;;;31.20;14.80;;;;;;;0.39;100.00;101258.75;5113524;28;20093;-69
2022/02/24 06:48:00;;;;;;;24.00;13.30;;;;;;;0.76;100.00;101251.59;5113382;28;20047;-69
2022/02/24 06:50:28;;;;;;;25.10;13.18;;;;;;;0.90;100.00;101255.03;5113731;28;20047;-68
2022/02/24 06:52:57;;;;;;;25.23;14.23;;;;;;;0.98;99.06;101258.50;5095030;28;20139;-69
2022/02/24 06:55:26;;;;;;;27.45;12.38;;;;;;;1.11;96.67;101256.69;5113577;28;20088;-69
2022/02/24 06:57:54;;;;;;;23.77;12.60;;;;;;;0.94;98.94;101251.50;5113340;28;20066;-69
2022/02/24 07:00:24;;;;;;;21.80;10.98;;;;;;;1.01;96.12;101245.34;5113089;28;20044;-69
2022/02/24 07:02:53;;;;;;;20.77;10.07;;;;;;;0.94;96.74;101248.00;5113445;28;20096;-69
2022/02/24 07:05:24;;;;;;;21.98;10.60;;;;;;;0.83;97.26;101245.44;5112897;28;20480;-71
2022/02/24 07:07:53;;;;;;;22.95;9.95;;;;;;;1.14;94.93;101246.16;5113215;28;20036;-70
2022/02/24 07:10:23;;;;;;;21.02;10.55;;;;;;;1.22;95.11;101248.72;5112998;28;20392;-70
2022/02/24 07:12:53;;;;;;;25.08;12.35;;;;;;;1.27;94.95;101246.97;5113023;28;20039;-69
2022/02/24 07:15:21;;;;;;;26.15;11.80;;;;;;;1.35;93.29;101247.75;5113069;28;20413;-68
2022/02/24 07:17:50;;;;;;;29.30;14.73;;;;;;;1.33;92.99;101252.16;5113656;28;20051;-70
2022/02/24 07:20:19;;;;;;;28.95;14.52;;;;;;;1.34;93.85;101256.53;5113254;28;20050;-70
2022/02/24 07:22:47;;;;;;;29.70;14.90;;;;;;;1.28;94.22;101257.47;5113358;28;20044;-69
2022/02/24 07:25:16;;;;;;;26.08;14.00;;;;;;;1.16;94.88;101254.91;5112791;28;20123;-69
2022/02/24 07:27:45;;;;;;;28.73;14.10;;;;;;;1.11;96.10;101254.94;5113246;28;20071;-68
2022/02/24 07:30:16;;;;;;;26.60;13.73;;;;;;;1.08;96.19;101262.84;5113304;28;20511;-70
2022/02/24 07:32:44;;;;;;;24.65;14.13;;;;;;;1.11;96.89;101260.19;5113254;28;20035;-69
2022/02/24 07:35:13;;;;;;;24.85;14.30;;;;;;;1.20;96.23;101261.88;5113058;28;20044;-70
2022/02/24 07:37:41;;;;;;;30.92;14.48;;;;;;;1.24;96.16;101249.59;5113387;28;20035;-70
2022/02/24 07:40:10;;;;;;;33.03;15.57;;;;;;;1.35;95.66;101258.28;5113717;28;20040;-70
2022/02/24 07:42:39;;;;;;;28.92;16.52;;;;;;;1.63;94.16;101251.94;5114807;28;20036;-69
2022/02/24 07:45:09;;;;;;;32.42;15.27;;;;;;;1.87;92.70;101261.41;5095322;28;20054;-70
2022/02/24 07:47:39;;;;;;;27.08;14.98;;;;;;;1.92;92.47;101251.69;5115086;28;20044;-69
2022/02/24 07:50:13;;;;;;;29.17;14.95;;;;;;;2.15;89.70;101235.72;5117122;28;20039;-71
2022/02/24 07:52:42;;;;;;;25.30;13.52;;;;;;;2.24;88.52;101247.91;5117397;28;20477;-68
2022/02/24 07:55:13;;;;;;;26.80;14.70;;;;;;;2.36;87.83;101239.88;5117103;28;20130;-70
2022/02/24 07:57:43;;;;;;;26.48;14.48;;;;;;;2.42;87.35;101238.94;5117254;28;20075;-71
2022/02/24 08:00:14;;;;;;;23.23;14.27;;;;;;;2.35;88.22;101243.41;5117109;28;20046;-71
2022/02/24 08:02:46;;;;;;;26.30;14.00;;;;;;;2.38;87.82;101237.22;5117276;28;20043;-70
2022/02/24 08:05:14;;;;;;;30.58;14.93;;;;;;;2.36;88.06;101233.75;5116677;28;20089;-69
2022/02/24 08:07:42;;;;;;;29.58;15.30;;;;;;;2.58;87.40;101225.56;5116796;28;20070;-70
2022/02/24 08:10:13;;;;;;;26.85;14.75;;;;;;;2.90;85.92;101231.34;5116798;28;20067;-68
2022/02/24 08:12:43;;;;;;;27.40;14.95;;;;;;;2.87;86.85;101222.56;5116492;28;20111;-69
2022/02/24 08:15:13;;;;;;;29.42;16.13;;;;;;;2.87;87.37;101227.84;5116586;28;20050;-69
2022/02/24 08:17:43;;;;;;;31.23;16.52;;;;;;;2.91;87.82;101225.19;5117119;28;20056;-69
2022/02/24 08:20:13;;;;;;;34.75;16.45;;;;;;;3.00;87.83;101225.94;5116371;28;20473;-69
2022/02/24 08:22:44;;;;;;;37.35;16.45;;;;;;;3.05;87.59;101224.09;5116677;28;20438;-69
2022/02/24 08:25:15;;;;;;;33.17;16.75;;;;;;;3.11;87.78;101224.00;5116456;28;20155;-69
2022/02/24 08:27:44;;;;;;;34.40;16.60;;;;;;;3.23;87.91;101225.59;5116387;28;20408;-68
2022/02/24 08:30:14;;;;;;;27.85;15.90;;;;;;;3.34;87.46;101222.78;5116266;28;20089;-68
2022/02/24 08:32:45;;;;;;;36.70;17.13;;;;;;;3.48;87.63;101215.56;5116547;28;20074;-68
2022/02/24 08:35:15;;;;;;;34.42;17.20;;;;;;;3.58;86.81;101211.00;5116244;28;20043;-69
2022/02/24 08:37:47;;;;;;;29.40;16.35;;;;;;;3.72;86.22;101207.22;5116730;28;20043;-68
2022/02/24 08:40:17;;;;;;;23.60;13.10;;;;;;;3.93;84.15;101205.97;5097894;28;20158;-68
2022/02/24 08:42:46;;;;;;;23.67;12.65;;;;;;;4.18;81.22;101201.13;5116002;28;20051;-69
2022/02/24 08:45:14;;;;;;;20.23;9.07;;;;;;;4.27;80.35;101203.59;5116002;28;20089;-68
2022/02/24 08:47:44;;;;;;;19.08;8.95;;;;;;;4.70;77.18;101196.56;5116240;28;20047;-68
2022/02/24 08:50:13;;;;;;;17.80;8.15;;;;;;;4.89;76.50;101192.63;5116052;28;20126;-68
2022/02/24 08:53:02;;;;;;;14.98;7.95;;;;;;;5.10;75.40;101186.88;5116208;28;20448;-68
2022/02/24 08:55:33;;;;;;;15.57;8.35;;;;;;;5.24;74.37;101178.63;5115919;28;20086;-68
2022/02/24 08:58:03;;;;;;;19.70;8.93;;;;;;;5.25;73.81;101184.78;5115697;28;20040;-68
2022/02/24 09:00:34;;;;;;;15.07;7.60;;;;;;;5.39;72.22;101183.53;5115803;28;20040;-68
2022/02/24 09:03:04;;;;;;;15.23;7.35;;;;;;;5.52;72.08;101177.97;5115994;28;20035;-68
2022/02/24 09:05:35;;;;;;;12.65;6.30;;;;;;;5.71;71.36;101174.81;5116102;28;20058;-68
2022/02/24 09:08:03;;;;;;;13.85;6.22;;;;;;;5.74;69.96;101172.09;5115533;28;20047;-68
2022/02/24 09:10:35;;;;;;;12.68;5.95;;;;;;;5.89;69.68;101170.84;5115486;28;20040;-68
2022/02/24 09:13:04;;;;;;;21.80;5.80;;;;;;;5.89;68.71;101162.88;5115720;28;20123;-67
2022/02/24 09:15:36;;;;;;;12.02;5.70;;;;;;;5.95;68.47;101169.81;5114905;28;20040;-69
2022/02/24 09:18:08;;;;;;;12.13;4.90;;;;;;;6.13;67.97;101161.38;5097890;28;20055;-68
2022/02/24 09:20:38;;;;;;;11.70;4.57;;;;;;;6.27;67.31;101160.97;5115829;28;20119;-69
2022/02/24 09:23:07;;;;;;;9.18;5.22;;;;;;;6.24;66.92;101158.44;5115564;28;20088;-68
2022/02/24 09:25:38;;;;;;;12.07;5.15;;;;;;;6.31;66.46;101144.09;5115211;28;20507;-68
2022/02/24 09:28:06;;;;;;;9.48;4.25;;;;;;;6.43;64.28;101153.47;5115225;28;20086;-67
2022/02/24 09:30:35;;;;;;;13.20;5.15;;;;;;;6.41;64.56;101144.72;5114932;28;20104;-68
2022/02/24 09:33:07;;;;;;;12.63;5.07;;;;;;;6.34;64.28;101153.75;5115479;28;20048;-68
2022/02/24 09:35:40;;;;;;;12.43;5.10;;;;;;;6.57;62.06;101136.28;5097102;28;20105;-68
2022/02/24 09:38:09;;;;;;;13.02;4.55;;;;;;;6.68;61.73;101137.72;5115335;28;20428;-68
2022/02/24 09:40:37;;;;;;;10.13;4.55;;;;;;;6.77;60.94;101133.03;5115002;28;20085;-67
2022/02/24 09:43:20;;;;;;;9.95;4.70;;;;;;;6.68;61.64;101132.44;5096889;28;20412;-69
2022/02/24 09:45:51;;;;;;;13.82;5.13;;;;;;;6.76;61.60;101127.78;5114910;28;20397;-68
2022/02/24 09:48:28;;;;;;;10.07;4.32;;;;;;;6.95;60.74;101139.56;5096505;28;20439;-68
2022/02/24 09:50:57;;;;;;;10.20;4.57;;;;;;;6.99;60.58;101129.69;5097135;28;20071;-68
2022/02/24 09:53:27;;;;;;;14.52;5.22;;;;;;;6.91;60.84;101131.72;5114787;28;20102;-68
2022/02/24 09:55:56;;;;;;;8.52;4.18;;;;;;;7.05;58.97;101121.56;5114896;28;20126;-68
2022/02/24 09:58:25;;;;;;;10.98;4.53;;;;;;;7.05;59.17;101125.06;5114650;28;20039;-68
2022/02/24 10:00:54;;;;;;;8.57;3.83;;;;;;;6.98;59.06;101115.56;5114538;28;20130;-68
2022/02/24 10:03:29;;;;;;;8.50;4.13;;;;;;;7.08;59.77;101116.16;5114371;28;20043;-68
2022/02/24 10:05:59;;;;;;;7.75;4.25;;;;;;;7.20;58.64;101105.13;5114587;28;20047;-68
2022/02/24 10:08:29;;;;;;;11.35;4.22;;;;;;;7.21;58.91;101101.56;5114571;28;20438;-68
2022/02/24 10:10:59;;;;;;;10.45;4.50;;;;;;;7.14;59.09;101107.97;5113891;28;20101;-68
2022/02/24 10:13:28;;;;;;;7.18;3.80;;;;;;;7.41;55.56;101093.78;5114449;28;20078;-68
2022/02/24 10:15:58;;;;;;;8.77;3.60;;;;;;;7.43;55.58;101097.28;5114271;28;20094;-68
2022/02/24 10:18:30;;;;;;;8.77;3.65;;;;;;;7.43;54.59;101097.28;5114294;28;20040;-69
2022/02/24 10:21:01;;;;;;;6.47;3.25;;;;;;;7.56;53.65;101086.25;5114559;28;20039;-69
2022/02/24 10:23:34;;;;;;;9.35;3.22;;;;;;;7.58;53.38;101089.72;5114358;28;20052;-68
2022/02/24 10:26:05;;;;;;;11.18;3.50;;;;;;;7.50;53.04;101081.13;5114387;28;20459;-69
2022/02/24 10:28:38;;;;;;;10.18;4.00;;;;;;;7.42;53.29;101084.91;5114141;28;20207;-69
2022/02/24 10:31:09;;;;;;;8.80;3.60;;;;;;;7.64;52.76;101078.88;5114305;28;20392;-68
2022/02/24 10:33:41;;;;;;;8.15;3.95;;;;;;;7.78;52.02;101073.94;5114155;28;20071;-68
2022/02/24 10:36:18;;;;;;;9.38;4.05;;;;;;;7.82;50.85;101067.63;5114168;28;20047;-68
2022/02/24 10:38:59;;;;;;;13.98;4.00;;;;;;;7.78;50.48;101065.97;5114269;28;20047;-68
2022/02/24 10:41:30;;;;;;;;;;;;;;;7.79;50.35;101066.84;5114030;28;20050;-68
2022/02/24 10:44:12;;;;;;;9.52;3.50;;;;;;;7.89;50.65;101058.47;5113718;28;20291;-68
2022/02/24 10:46:43;;;;;;;7.90;3.75;;;;;;;7.77;50.93;101058.94;5113743;28;20042;-68
2022/02/24 10:49:30;;;;;;;9.65;4.03;;;;;;;7.82;50.46;101051.69;5113940;28;20075;-68
2022/02/24 10:52:15;;;;;;;10.87;3.47;;;;;;;7.93;50.46;101052.16;5114027;28;20039;-68
2022/02/24 10:54:45;;;;;;;8.98;3.35;;;;;;;7.83;50.59;101050.75;5113932;28;20299;-67
2022/02/24 10:57:20;;;;;;;7.10;2.80;;;;;;;7.99;49.13;101043.06;5113887;28;20060;-68
2022/02/24 10:59:49;;;;;;;8.73;2.95;;;;;;;8.09;49.22;101043.59;5113967;28;20043;-69
2022/02/24 11:02:21;;;;;;;7.13;2.60;;;;;;;8.07;48.70;101037.47;5113625;28;20122;-69
2022/02/24 11:04:53;;;;;;;8.25;2.72;;;;;;;8.01;48.57;101036.81;5113751;28;20140;-68
2022/02/24 11:07:23;;;;;;;8.88;2.80;;;;;;;8.07;49.48;101027.72;5095225;28;20071;-69
2022/02/24 11:09:57;;;;;;;5.70;2.55;;;;;;;8.02;49.30;101011.09;5113341;28;20036;-69
2022/02/24 11:12:29;;;;;;;7.20;2.33;;;;;;;8.22;47.60;101013.00;5095199;28;20052;-67
2022/02/24 11:14:59;;;;;;;6.95;2.50;;;;;;;8.34;46.67;101015.16;5113839;28;20035;-68
2022/02/24 11:17:28;;;;;;;6.97;2.30;;;;;;;8.20;47.24;101002.44;5113004;28;20055;-68
2022/02/24 11:19:59;;;;;;;6.88;2.65;;;;;;;8.13;47.28;101003.59;5113596;28;20044;-68
2022/02/24 11:22:28;;;;;;;5.38;2.53;;;;;;;8.09;47.73;100993.97;5118757;28;20391;-69
2022/02/24 11:24:59;;;;;;;7.80;2.20;;;;;;;8.20;48.30;100989.13;5120394;28;20071;-68